Time;durP1;ratioP1;P1;durP2;ratioP2;P2;SDS_P1;SDS_P2;PMS_P1;PMS_P2;Temp;Humidity;BMP_temperature;BMP_pressure;BME280_temperature;BME280_humidity;BME280_pressure;Samples;Min_cycle;Max_cycle;Signal;HPM_P1;HPM_P2
2023/12/25 00:03:47;;;;;;;2.37;0.90;;;10.60;99.90;;;;;;7359227;32;20123;-57
2023/12/25 00:07:52;;;;;;;3.75;1.17;;;10.50;99.90;;;;;;7359648;32;20118;-57
2023/12/25 00:11:54;;;;;;;3.20;1.17;;;10.50;99.90;;;;;;7358083;32;20183;-57
2023/12/25 00:15:56;;;;;;;2.53;1.20;;;10.50;99.90;;;;;;7362255;32;20175;-57
2023/12/25 00:19:58;;;;;;;5.22;1.40;;;10.50;99.90;;;;;;7360047;32;20138;-57
2023/12/25 00:23:59;;;;;;;2.42;1.10;;;10.50;99.90;;;;;;7366743;32;20157;-57
2023/12/25 00:28:02;;;;;;;4.82;1.45;;;10.50;99.90;;;;;;7351039;32;21322;-57
2023/12/25 00:32:04;;;;;;;5.03;1.37;;;10.50;99.90;;;;;;7365384;32;20245;-57
2023/12/25 00:36:06;;;;;;;2.70;1.48;;;10.50;99.90;;;;;;7357888;32;20122;-57
2023/12/25 00:40:08;;;;;;;4.03;1.40;;;10.60;99.90;;;;;;7367853;32;20150;-56
2023/12/25 00:44:10;;;;;;;2.37;1.50;;;10.60;99.90;;;;;;7359485;32;20148;-57
2023/12/25 00:48:11;;;;;;;4.10;1.58;;;10.60;99.90;;;;;;7354015;32;20257;-57
2023/12/25 00:52:17;;;;;;;2.70;1.23;;;10.70;99.90;;;;;;7363073;32;20533;-57
2023/12/25 00:56:19;;;;;;;2.33;1.25;;;10.60;99.90;;;;;;7361657;32;20110;-57
2023/12/25 01:00:20;;;;;;;2.65;1.23;;;10.60;99.90;;;;;;7357736;32;20166;-57
2023/12/25 01:04:22;;;;;;;5.12;1.15;;;10.70;99.90;;;;;;7362745;32;20115;-55
2023/12/25 01:08:24;;;;;;;5.47;1.50;;;10.60;99.90;;;;;;7351159;32;20274;-56
2023/12/25 01:12:26;;;;;;;1.87;0.95;;;10.60;99.90;;;;;;7361069;32;20224;-56
2023/12/25 01:16:28;;;;;;;4.80;1.52;;;10.60;99.90;;;;;;7357010;32;20111;-56
2023/12/25 01:20:29;;;;;;;3.55;1.40;;;10.70;99.90;;;;;;7364290;32;20126;-56
2023/12/25 01:24:31;;;;;;;3.90;1.45;;;10.70;99.90;;;;;;7362253;32;21741;-56
2023/12/25 01:28:33;;;;;;;4.93;1.33;;;10.70;99.90;;;;;;7355468;32;20240;-56
2023/12/25 01:32:34;;;;;;;1.67;1.10;;;10.70;99.90;;;;;;7358612;32;20282;-56
2023/12/25 01:36:38;;;;;;;2.15;0.80;;;10.70;99.90;;;;;;7354366;32;20321;-56
2023/12/25 01:40:44;;;;;;;2.22;1.12;;;10.70;99.90;;;;;;7364032;32;20218;-56
2023/12/25 01:44:47;;;;;;;1.83;0.98;;;10.70;99.90;;;;;;7353600;32;20098;-56
2023/12/25 01:48:51;;;;;;;1.02;0.88;;;10.70;99.90;;;;;;7357610;32;20107;-56
2023/12/25 01:52:53;;;;;;;3.25;1.00;;;10.70;99.90;;;;;;7362942;32;20167;-55
2023/12/25 01:56:56;;;;;;;4.12;1.08;;;10.70;99.90;;;;;;7353124;32;20191;-56
2023/12/25 02:00:57;;;;;;;3.58;1.20;;;10.70;99.90;;;;;;7361120;32;20222;-55
2023/12/25 02:04:59;;;;;;;4.97;1.77;;;10.70;99.90;;;;;;7367314;32;20592;-56
2023/12/25 02:09:02;;;;;;;1.75;0.90;;;10.70;99.90;;;;;;7369123;32;20171;-56
2023/12/25 02:13:05;;;;;;;2.58;1.10;;;10.70;99.90;;;;;;7368489;32;20186;-56
2023/12/25 02:17:09;;;;;;;2.47;0.98;;;10.70;99.90;;;;;;7365673;32;20128;-55
2023/12/25 02:21:11;;;;;;;1.42;0.90;;;10.70;99.90;;;;;;7370991;32;20125;-55
2023/12/25 02:25:23;;;;;;;2.72;1.08;;;10.70;99.90;;;;;;7368127;32;20118;-56
2023/12/25 02:29:25;;;;;;;1.23;0.70;;;10.80;99.90;;;;;;7369525;32;20488;-56
2023/12/25 02:33:26;;;;;;;2.08;0.82;;;10.80;99.90;;;;;;7362252;32;20465;-55
2023/12/25 02:37:28;;;;;;;1.77;0.80;;;10.80;99.90;;;;;;7367546;32;20492;-56
2023/12/25 02:41:30;;;;;;;1.95;0.88;;;10.80;99.90;;;;;;7367406;32;20565;-56
2023/12/25 02:45:32;;;;;;;1.42;1.00;;;10.70;99.90;;;;;;7366050;32;20446;-56
2023/12/25 02:49:34;;;;;;;3.08;1.00;;;10.70;99.90;;;;;;7354126;32;20146;-56
2023/12/25 02:53:36;;;;;;;2.20;1.12;;;10.70;99.90;;;;;;7359712;32;20323;-56
2023/12/25 02:57:37;;;;;;;2.67;0.77;;;10.70;99.90;;;;;;7364973;32;20100;-55
2023/12/25 03:01:39;;;;;;;4.32;1.00;;;10.80;99.90;;;;;;7365055;32;20198;-55
2023/12/25 03:05:41;;;;;;;1.35;0.90;;;10.70;99.90;;;;;;7364582;32;20147;-56
2023/12/25 03:09:44;;;;;;;2.00;0.80;;;10.80;99.90;;;;;;7355725;32;20273;-56
2023/12/25 03:13:45;;;;;;;2.47;1.12;;;10.80;99.90;;;;;;7367348;32;20107;-54
2023/12/25 03:17:47;;;;;;;1.90;1.05;;;10.90;99.90;;;;;;7365893;32;20513;-56
2023/12/25 03:21:49;;;;;;;2.20;0.70;;;10.90;99.90;;;;;;7367375;32;20102;-56
2023/12/25 03:25:51;;;;;;;1.75;0.60;;;10.80;99.90;;;;;;7368897;32;20214;-55
2023/12/25 03:29:52;;;;;;;2.10;0.60;;;10.90;99.90;;;;;;7357941;32;20380;-56
2023/12/25 03:33:54;;;;;;;1.12;0.50;;;11.00;99.90;;;;;;7364211;32;20269;-56
2023/12/25 03:37:56;;;;;;;2.70;0.40;;;11.00;99.90;;;;;;7365417;32;20221;-56
2023/12/25 03:41:58;;;;;;;1.35;0.52;;;11.00;99.90;;;;;;7367933;32;20272;-56
2023/12/25 03:46:00;;;;;;;2.45;0.50;;;11.00;99.90;;;;;;7361711;32;20167;-56
2023/12/25 03:50:02;;;;;;;0.80;0.70;;;11.00;99.90;;;;;;7356191;32;20106;-56
2023/12/25 03:54:03;;;;;;;1.73;0.50;;;11.00;99.90;;;;;;7365759;32;20274;-55
2023/12/25 03:58:05;;;;;;;1.05;0.43;;;11.00;99.90;;;;;;7362556;32;20258;-57
2023/12/25 04:02:07;;;;;;;1.45;0.50;;;11.10;99.90;;;;;;7360878;32;20138;-56
2023/12/25 04:06:09;;;;;;;1.12;0.47;;;11.10;99.90;;;;;;7357880;32;20152;-56
2023/12/25 04:10:11;;;;;;;0.93;0.50;;;11.10;99.90;;;;;;7348208;32;20122;-55
2023/12/25 04:14:12;;;;;;;0.77;0.50;;;11.10;99.90;;;;;;7355638;32;20099;-55
2023/12/25 04:18:14;;;;;;;2.40;0.70;;;11.10;99.90;;;;;;7358102;32;20171;-55
2023/12/25 04:22:16;;;;;;;1.25;0.50;;;11.10;99.90;;;;;;7346170;32;20241;-56
2023/12/25 04:26:22;;;;;;;0.90;0.40;;;11.10;99.90;;;;;;7362899;32;20209;-55
2023/12/25 04:30:24;;;;;;;1.10;0.47;;;11.10;99.90;;;;;;7356917;32;20253;-56
2023/12/25 04:34:26;;;;;;;1.15;0.52;;;11.10;99.90;;;;;;7362232;32;20202;-56
2023/12/25 04:38:27;;;;;;;0.52;0.45;;;11.10;99.90;;;;;;7360292;32;20107;-56
2023/12/25 04:42:29;;;;;;;0.90;0.40;;;11.20;99.90;;;;;;7349721;32;20102;-56
2023/12/25 04:46:31;;;;;;;1.40;0.50;;;11.10;99.90;;;;;;7353801;32;20127;-56
2023/12/25 04:50:36;;;;;;;0.68;0.57;;;11.20;99.90;;;;;;7360055;32;20780;-57
2023/12/25 04:54:37;;;;;;;1.15;0.40;;;11.10;99.90;;;;;;7362374;32;20194;-55
2023/12/25 04:58:39;;;;;;;0.65;0.30;;;11.00;99.90;;;;;;7359168;32;20095;-56
2023/12/25 05:02:41;;;;;;;0.52;0.32;;;11.00;99.90;;;;;;7346670;32;20129;-56
2023/12/25 05:06:43;;;;;;;1.25;0.30;;;11.00;99.90;;;;;;7357703;32;20103;-56
2023/12/25 05:10:45;;;;;;;1.37;0.20;;;11.00;99.90;;;;;;7357264;32;20143;-56
2023/12/25 05:14:46;;;;;;;1.00;0.35;;;11.00;99.90;;;;;;7361990;32;20515;-56
2023/12/25 05:18:48;;;;;;;0.77;0.30;;;10.90;99.90;;;;;;7342794;32;20253;-56
2023/12/25 05:22:52;;;;;;;0.82;0.30;;;10.90;99.90;;;;;;7364618;32;20169;-56
2023/12/25 05:26:53;;;;;;;2.05;0.30;;;11.00;99.90;;;;;;7359893;32;20206;-56
2023/12/25 05:30:55;;;;;;;0.88;0.30;;;11.00;99.90;;;;;;7362358;32;20277;-56
2023/12/25 05:34:57;;;;;;;1.62;0.40;;;11.00;99.90;;;;;;7340301;32;20133;-56
2023/12/25 05:38:59;;;;;;;0.43;0.25;;;10.90;99.90;;;;;;7360663;32;20136;-56
2023/12/25 05:43:14;;;;;;;1.05;0.30;;;10.90;99.90;;;;;;7362741;32;20126;-55
2023/12/25 05:47:16;;;;;;;1.33;0.30;;;11.00;99.90;;;;;;7357419;32;20203;-56
2023/12/25 05:51:18;;;;;;;1.15;0.37;;;10.90;99.90;;;;;;7356190;32;20102;-55
2023/12/25 05:55:20;;;;;;;3.60;0.40;;;10.90;99.90;;;;;;7359264;32;20106;-56
2023/12/25 05:59:21;;;;;;;1.35;0.40;;;10.90;99.90;;;;;;7355400;32;20167;-56
2023/12/25 06:03:23;;;;;;;0.47;0.30;;;10.90;99.90;;;;;;7359502;32;20244;-55
2023/12/25 06:07:25;;;;;;;1.12;0.40;;;10.80;99.90;;;;;;7360103;32;20478;-55
2023/12/25 06:11:27;;;;;;;0.80;0.50;;;10.80;99.90;;;;;;7360331;32;20131;-55
2023/12/25 06:15:29;;;;;;;0.80;0.52;;;10.80;99.90;;;;;;7354655;32;20143;-55
2023/12/25 06:19:30;;;;;;;2.40;0.47;;;10.80;99.90;;;;;;7354665;32;20231;-56
2023/12/25 06:23:32;;;;;;;2.08;0.70;;;10.80;99.90;;;;;;7354485;32;20245;-56
2023/12/25 06:27:34;;;;;;;1.08;0.52;;;10.80;99.90;;;;;;7353900;32;20129;-56
2023/12/25 06:31:52;;;;;;;1.75;0.60;;;10.80;99.90;;;;;;7361280;32;20183;-56
2023/12/25 06:35:54;;;;;;;1.67;0.55;;;10.80;99.90;;;;;;7359504;32;20225;-56
2023/12/25 06:39:55;;;;;;;1.35;0.70;;;10.80;99.90;;;;;;7354242;32;20176;-56
2023/12/25 06:43:57;;;;;;;2.37;0.50;;;10.80;99.90;;;;;;7363856;32;20131;-57
2023/12/25 06:47:59;;;;;;;2.20;0.50;;;10.90;99.90;;;;;;7356293;32;20196;-56
2023/12/25 06:52:01;;;;;;;1.30;0.60;;;10.80;99.90;;;;;;7363792;32;20539;-56
2023/12/25 06:56:04;;;;;;;1.98;0.50;;;10.80;99.90;;;;;;7365964;32;20103;-56
2023/12/25 07:00:06;;;;;;;0.50;0.40;;;10.80;99.90;;;;;;7360281;32;20178;-56
2023/12/25 07:04:09;;;;;;;0.75;0.40;;;10.90;99.90;;;;;;7359134;32;20226;-55
2023/12/25 07:08:11;;;;;;;0.68;0.37;;;10.90;99.90;;;;;;7363544;32;22237;-56
2023/12/25 07:12:13;;;;;;;1.50;0.40;;;11.00;99.90;;;;;;7364952;32;20779;-56
2023/12/25 07:16:23;;;;;;;2.92;0.60;;;10.90;99.90;;;;;;7361394;32;20589;-55
2023/12/25 07:20:25;;;;;;;0.60;0.32;;;10.90;99.90;;;;;;7363042;32;20107;-56
2023/12/25 07:24:28;;;;;;;1.02;0.47;;;10.90;99.90;;;;;;7366752;32;20240;-57
2023/12/25 07:28:30;;;;;;;1.62;0.55;;;10.90;99.90;;;;;;7362881;32;20171;-56
2023/12/25 07:32:32;;;;;;;1.58;0.55;;;10.90;99.90;;;;;;7362226;32;20123;-56
2023/12/25 07:36:35;;;;;;;1.65;0.40;;;11.00;99.90;;;;;;7362746;32;20215;-57
2023/12/25 07:40:37;;;;;;;2.28;0.50;;;11.00;99.90;;;;;;7361562;32;20240;-58
2023/12/25 07:44:39;;;;;;;3.25;0.43;;;11.00;99.90;;;;;;7365638;32;20203;-57
2023/12/25 07:48:41;;;;;;;1.77;0.37;;;11.00;99.90;;;;;;7362105;32;20284;-57
2023/12/25 07:52:43;;;;;;;1.10;0.40;;;11.00;99.90;;;;;;7352436;32;20238;-56
2023/12/25 07:56:44;;;;;;;1.17;0.50;;;11.00;99.90;;;;;;7362769;32;20107;-57
2023/12/25 08:00:48;;;;;;;0.65;0.30;;;11.00;99.90;;;;;;7358412;32;20268;-57
2023/12/25 08:04:49;;;;;;;0.60;0.30;;;11.00;99.90;;;;;;7362277;32;20218;-57
2023/12/25 08:08:51;;;;;;;2.55;0.30;;;11.00;99.90;;;;;;7357470;32;20536;-57
2023/12/25 08:12:53;;;;;;;2.42;0.30;;;11.00;99.90;;;;;;7358053;32;20122;-57
2023/12/25 08:16:55;;;;;;;0.80;0.32;;;11.10;99.90;;;;;;7357577;32;20172;-56
2023/12/25 08:20:57;;;;;;;0.73;0.50;;;11.10;99.90;;;;;;7354026;32;20268;-57
2023/12/25 08:24:59;;;;;;;0.20;0.20;;;11.10;99.90;;;;;;7365330;32;20576;-58
2023/12/25 08:29:00;;;;;;;0.90;0.45;;;11.20;99.90;;;;;;7367172;32;20115;-57
2023/12/25 08:33:02;;;;;;;0.52;0.20;;;11.20;99.90;;;;;;7361797;32;20243;-57
2023/12/25 08:37:04;;;;;;;0.82;0.30;;;11.20;99.90;;;;;;7363519;32;20640;-58
2023/12/25 08:41:06;;;;;;;1.90;0.28;;;11.20;99.90;;;;;;7362463;32;20172;-57
2023/12/25 08:45:08;;;;;;;1.95;0.30;;;11.30;99.90;;;;;;7357635;32;20503;-57
2023/12/25 08:49:10;;;;;;;1.27;0.40;;;11.30;99.90;;;;;;7359053;32;20562;-58
2023/12/25 08:53:12;;;;;;;1.55;0.20;;;11.30;99.90;;;;;;7363869;32;20332;-56
2023/12/25 08:57:13;;;;;;;0.60;0.30;;;11.30;99.90;;;;;;7360267;32;20191;-57
2023/12/25 09:01:16;;;;;;;0.43;0.15;;;11.40;99.90;;;;;;7356074;32;20319;-58
2023/12/25 09:05:18;;;;;;;1.52;0.25;;;11.40;99.90;;;;;;7360658;32;20154;-58
2023/12/25 09:09:21;;;;;;;0.32;0.10;;;11.40;99.90;;;;;;7358829;32;20166;-58
2023/12/25 09:13:23;;;;;;;0.65;0.17;;;11.40;99.90;;;;;;7360551;32;20115;-59
2023/12/25 09:17:25;;;;;;;1.17;0.20;;;11.50;99.90;;;;;;7363865;32;20413;-56
2023/12/25 09:21:27;;;;;;;0.37;0.20;;;11.50;99.90;;;;;;7358044;32;20222;-56
2023/12/25 09:25:28;;;;;;;0.17;0.10;;;11.50;99.90;;;;;;7353616;32;20527;-56
2023/12/25 09:29:30;;;;;;;0.13;0.10;;;11.50;99.90;;;;;;7354920;32;20560;-55
2023/12/25 09:33:32;;;;;;;0.80;0.20;;;11.50;99.90;;;;;;7359256;32;20569;-56
2023/12/25 09:37:34;;;;;;;0.40;0.20;;;11.50;99.90;;;;;;7353677;32;20141;-56
2023/12/25 09:41:36;;;;;;;2.40;0.30;;;11.60;99.90;;;;;;7351754;32;20122;-57
2023/12/25 09:45:38;;;;;;;1.15;0.28;;;11.50;99.90;;;;;;7360180;32;20226;-57
2023/12/25 09:49:42;;;;;;;0.45;0.17;;;11.50;99.90;;;;;;7357616;32;20131;-56
2023/12/25 09:53:44;;;;;;;1.30;0.30;;;11.50;99.90;;;;;;7358349;32;20141;-56
2023/12/25 09:57:47;;;;;;;0.62;0.40;;;11.40;99.90;;;;;;7353880;32;20159;-57
2023/12/25 10:01:50;;;;;;;0.20;0.10;;;11.50;99.90;;;;;;7355629;32;20108;-56
2023/12/25 10:05:51;;;;;;;0.75;0.22;;;11.40;99.90;;;;;;7360735;32;20152;-56
2023/12/25 10:09:53;;;;;;;0.90;0.22;;;11.50;99.90;;;;;;7358066;32;20107;-57
2023/12/25 10:13:55;;;;;;;0.40;0.20;;;11.50;99.90;;;;;;7360486;32;20169;-57
2023/12/25 10:18:04;;;;;;;0.73;0.30;;;11.50;99.90;;;;;;7354176;32;20190;-56
2023/12/25 10:22:08;;;;;;;0.20;0.20;;;11.50;99.90;;;;;;7359493;32;20103;-56
2023/12/25 10:26:10;;;;;;;1.85;0.15;;;11.60;99.90;;;;;;7358361;32;20559;-56
2023/12/25 10:30:23;;;;;;;1.95;0.20;;;11.50;99.90;;;;;;7364040;32;20265;-57
2023/12/25 10:34:25;;;;;;;0.75;0.13;;;11.50;99.90;;;;;;7355169;32;20110;-56
2023/12/25 10:38:26;;;;;;;0.82;0.20;;;11.50;99.90;;;;;;7366401;32;20194;-64
2023/12/25 10:42:29;;;;;;;1.08;0.28;;;11.60;99.90;;;;;;7360915;32;20264;-56
2023/12/25 10:46:37;;;;;;;1.20;0.13;;;11.70;99.90;;;;;;7362564;32;20630;-56
2023/12/25 10:50:56;;;;;;;0.20;0.13;;;11.60;99.90;;;;;;7359025;32;20210;-56
2023/12/25 10:54:58;;;;;;;0.50;0.20;;;11.50;99.90;;;;;;7362473;32;20130;-57
2023/12/25 10:59:23;;;;;;;0.82;0.30;;;11.40;99.90;;;;;;7367917;32;20114;-56
2023/12/25 11:03:26;;;;;;;1.73;0.25;;;11.30;99.90;;;;;;7362665;32;20094;-56
2023/12/25 11:07:28;;;;;;;0.52;0.22;;;11.20;99.90;;;;;;7365645;32;20213;-57
2023/12/25 11:11:33;;;;;;;1.20;0.40;;;11.20;99.90;;;;;;7362988;32;20633;-56
2023/12/25 11:15:35;;;;;;;0.85;0.30;;;11.20;99.90;;;;;;7362802;32;20151;-56
2023/12/25 11:19:37;;;;;;;0.65;0.40;;;11.20;99.90;;;;;;7360160;32;20705;-56
2023/12/25 11:23:41;;;;;;;1.67;0.40;;;11.20;99.90;;;;;;7358966;32;20118;-56
2023/12/25 11:27:51;;;;;;;0.80;0.55;;;11.20;99.90;;;;;;7360063;32;20114;-56
2023/12/25 11:31:54;;;;;;;4.10;0.75;;;11.20;99.90;;;;;;7363201;32;20481;-56
2023/12/25 11:35:56;;;;;;;0.55;0.32;;;11.20;99.90;;;;;;7355687;32;20239;-56
2023/12/25 11:39:59;;;;;;;0.80;0.62;;;11.20;99.90;;;;;;7358019;32;20099;-56
2023/12/25 11:44:06;;;;;;;0.75;0.43;;;11.20;99.90;;;;;;7358362;32;20264;-57
2023/12/25 11:48:10;;;;;;;3.40;0.47;;;11.20;99.90;;;;;;7367283;32;20277;-56
2023/12/25 11:52:55;;;;;;;0.43;0.40;;;11.20;99.90;;;;;;7363282;32;20125;-56
2023/12/25 11:57:21;;;;;;;0.52;0.40;;;11.30;99.90;;;;;;7358058;32;20295;-57
2023/12/25 12:01:24;;;;;;;0.47;0.40;;;11.30;99.90;;;;;;7358390;32;20108;-57
2023/12/25 12:05:27;;;;;;;0.88;0.55;;;11.30;99.90;;;;;;7357476;32;20289;-56
2023/12/25 12:09:29;;;;;;;1.17;0.55;;;11.20;99.90;;;;;;7357984;32;20523;-57
2023/12/25 12:13:32;;;;;;;3.95;1.17;;;11.20;99.90;;;;;;7367316;32;20122;-57
2023/12/25 12:17:35;;;;;;;1.20;0.57;;;11.30;99.90;;;;;;7353334;32;20393;-57
2023/12/25 12:21:38;;;;;;;1.50;0.60;;;11.30;99.90;;;;;;7348578;32;20216;-56
2023/12/25 12:25:40;;;;;;;1.60;0.40;;;11.30;99.90;;;;;;7358975;32;20182;-57
2023/12/25 12:29:41;;;;;;;0.62;0.50;;;11.30;99.90;;;;;;7359425;32;20110;-57
2023/12/25 12:33:43;;;;;;;0.77;0.43;;;11.40;99.90;;;;;;7353790;32;20233;-57
2023/12/25 12:37:46;;;;;;;1.45;0.60;;;11.40;99.90;;;;;;7356993;32;20513;-58
2023/12/25 12:41:47;;;;;;;0.85;0.60;;;11.40;99.90;;;;;;7360704;32;20217;-57
2023/12/25 12:45:49;;;;;;;1.27;0.70;;;11.40;99.90;;;;;;7359068;32;20164;-58
2023/12/25 12:49:51;;;;;;;1.02;0.60;;;11.40;99.90;;;;;;7365763;32;20110;-57
2023/12/25 12:53:53;;;;;;;2.45;1.08;;;11.40;99.90;;;;;;7360876;32;20135;-57
2023/12/25 12:57:55;;;;;;;0.77;0.60;;;11.30;99.90;;;;;;7355692;32;20214;-57
2023/12/25 13:01:57;;;;;;;2.45;0.70;;;11.40;99.90;;;;;;7359602;32;20217;-58
2023/12/25 13:05:59;;;;;;;2.17;0.80;;;11.30;99.90;;;;;;7357993;32;20155;-57
2023/12/25 13:10:01;;;;;;;0.77;0.68;;;11.30;99.90;;;;;;7352052;32;20110;-57
2023/12/25 13:14:02;;;;;;;2.12;0.80;;;11.30;99.90;;;;;;7358119;32;20164;-57
2023/12/25 13:18:05;;;;;;;1.00;0.80;;;11.40;99.90;;;;;;7357191;32;20222;-57
2023/12/25 13:22:08;;;;;;;2.65;0.93;;;11.40;99.90;;;;;;7362692;32;20384;-58
2023/12/25 13:26:10;;;;;;;2.20;0.90;;;11.40;99.90;;;;;;7354414;32;20157;-58
2023/12/25 13:30:12;;;;;;;0.77;0.50;;;11.30;99.90;;;;;;7358075;32;20114;-58
2023/12/25 13:34:14;;;;;;;0.77;0.30;;;11.30;99.90;;;;;;7356278;32;20239;-58
2023/12/25 13:38:16;;;;;;;0.95;0.55;;;11.10;99.90;;;;;;7358986;32;20154;-57
2023/12/25 13:42:18;;;;;;;1.10;0.60;;;11.00;99.90;;;;;;7362621;32;20549;-59
2023/12/25 13:46:20;;;;;;;0.93;0.60;;;10.90;99.90;;;;;;7334856;32;20383;-57
2023/12/25 13:50:21;;;;;;;1.02;0.80;;;10.90;99.90;;;;;;7345846;32;20886;-58
2023/12/25 13:54:23;;;;;;;0.80;0.65;;;10.80;99.90;;;;;;7349650;32;20245;-57
2023/12/25 13:58:25;;;;;;;1.12;0.77;;;10.80;99.90;;;;;;7347808;32;20516;-57
2023/12/25 14:02:27;;;;;;;1.23;0.90;;;10.80;99.90;;;;;;7337240;32;20154;-58
2023/12/25 14:06:29;;;;;;;1.77;1.08;;;10.70;99.90;;;;;;7350605;32;20107;-58
2023/12/25 14:10:33;;;;;;;0.77;0.62;;;10.70;99.90;;;;;;7345287;32;20685;-57
2023/12/25 14:14:35;;;;;;;0.68;0.65;;;10.70;99.90;;;;;;7342967;32;20265;-57
2023/12/25 14:18:37;;;;;;;1.35;1.10;;;10.70;99.90;;;;;;7346113;32;20193;-57
2023/12/25 14:22:39;;;;;;;1.12;0.80;;;10.60;99.90;;;;;;7350061;32;20813;-59
2023/12/25 14:26:40;;;;;;;2.75;0.90;;;10.60;99.90;;;;;;7342063;32;20205;-58
2023/12/25 14:30:42;;;;;;;3.53;1.00;;;10.60;99.90;;;;;;7348000;32;20233;-57
2023/12/25 14:34:44;;;;;;;1.52;1.17;;;10.60;99.90;;;;;;7338247;32;20135;-57
2023/12/25 14:38:46;;;;;;;1.50;0.77;;;10.60;99.90;;;;;;7350709;32;20103;-57
2023/12/25 14:42:48;;;;;;;2.40;1.87;;;10.70;99.90;;;;;;7353911;32;20221;-56
2023/12/25 14:46:50;;;;;;;2.50;1.05;;;10.70;99.90;;;;;;7358077;32;20862;-58
2023/12/25 14:50:52;;;;;;;1.33;0.90;;;10.80;99.90;;;;;;7359438;32;20693;-57
2023/12/25 14:54:54;;;;;;;1.12;0.90;;;10.80;99.90;;;;;;7359341;32;20129;-58
2023/12/25 14:58:56;;;;;;;1.33;0.90;;;10.80;99.90;;;;;;7359561;32;20525;-58
2023/12/25 15:02:58;;;;;;;1.15;0.95;;;10.90;99.90;;;;;;7357284;32;20111;-58
2023/12/25 15:07:00;;;;;;;1.12;0.80;;;10.90;99.90;;;;;;7358112;32;20198;-57
2023/12/25 15:11:03;;;;;;;0.85;0.77;;;10.80;99.90;;;;;;7364277;32;20425;-58
2023/12/25 15:15:06;;;;;;;0.80;0.70;;;10.80;99.90;;;;;;7367954;32;20237;-57
2023/12/25 15:19:10;;;;;;;1.20;0.60;;;10.70;99.90;;;;;;7361382;32;20179;-57
2023/12/25 15:23:12;;;;;;;1.20;0.40;;;10.50;99.90;;;;;;7362305;32;20142;-57
2023/12/25 15:27:14;;;;;;;0.98;0.75;;;10.50;99.90;;;;;;7358263;32;20362;-57
2023/12/25 15:31:15;;;;;;;0.88;0.65;;;10.40;99.90;;;;;;7357723;32;20216;-57
2023/12/25 15:35:17;;;;;;;2.00;1.33;;;10.40;99.90;;;;;;7364356;32;20187;-57
2023/12/25 15:39:19;;;;;;;2.12;1.27;;;10.50;99.90;;;;;;7360861;32;20244;-64
2023/12/25 15:43:29;;;;;;;1.55;1.02;;;10.50;99.90;;;;;;7361074;32;20219;-64
2023/12/25 15:47:31;;;;;;;2.62;1.20;;;10.60;99.90;;;;;;7361589;32;20275;-66
2023/12/25 15:51:34;;;;;;;1.95;1.05;;;10.60;99.90;;;;;;7357712;32;20110;-64
2023/12/25 15:55:36;;;;;;;2.60;1.10;;;10.70;99.90;;;;;;7357604;32;20170;-57
2023/12/25 15:59:38;;;;;;;3.12;1.00;;;10.70;99.90;;;;;;7360337;32;20175;-57
2023/12/25 16:03:39;;;;;;;1.70;0.70;;;10.70;99.90;;;;;;7358639;32;20212;-58
2023/12/25 16:07:42;;;;;;;1.15;1.02;;;10.90;99.90;;;;;;7364474;32;20129;-57
2023/12/25 16:11:44;;;;;;;2.05;1.00;;;10.90;99.90;;;;;;7361572;32;20159;-57
2023/12/25 16:15:46;;;;;;;1.20;1.00;;;10.90;99.90;;;;;;7357053;32;20376;-58
2023/12/25 16:19:49;;;;;;;2.47;1.80;;;11.00;99.90;;;;;;7362707;32;20683;-59
2023/12/25 16:23:51;;;;;;;2.90;1.35;;;11.10;99.90;;;;;;7358996;32;20145;-59
2023/12/25 16:27:53;;;;;;;2.20;1.45;;;11.10;99.90;;;;;;7362666;32;20111;-58
2023/12/25 16:31:55;;;;;;;2.33;1.80;;;11.10;99.90;;;;;;7359261;32;20240;-57
2023/12/25 16:36:02;;;;;;;2.35;1.27;;;11.20;99.90;;;;;;7357541;32;20332;-58
2023/12/25 16:40:06;;;;;;;2.45;1.60;;;11.20;99.90;;;;;;7362379;32;20103;-57
2023/12/25 16:44:08;;;;;;;1.65;1.55;;;11.20;99.90;;;;;;7370418;32;20241;-58
2023/12/25 16:48:10;;;;;;;2.10;1.80;;;11.20;99.90;;;;;;7368162;32;20115;-58
2023/12/25 16:52:12;;;;;;;2.50;2.10;;;11.20;99.90;;;;;;7359428;32;20107;-57
2023/12/25 16:56:14;;;;;;;2.70;2.25;;;11.20;99.90;;;;;;7355470;32;20149;-59
2023/12/25 17:00:17;;;;;;;3.17;2.65;;;11.10;99.90;;;;;;7362614;32;20099;-59
2023/12/25 17:04:18;;;;;;;3.55;2.60;;;11.20;99.90;;;;;;7366287;32;20122;-59
2023/12/25 17:08:25;;;;;;;2.92;2.40;;;11.20;99.90;;;;;;7360898;32;20535;-59
2023/12/25 17:12:27;;;;;;;2.08;1.87;;;11.10;99.90;;;;;;7359181;32;20135;-58
2023/12/25 17:16:29;;;;;;;3.55;1.87;;;11.20;99.90;;;;;;7359075;32;20107;-57
2023/12/25 17:20:30;;;;;;;1.60;1.30;;;11.20;99.90;;;;;;7359361;32;20427;-58
2023/12/25 17:24:33;;;;;;;1.67;1.08;;;11.20;99.90;;;;;;7357958;32;20111;-57
2023/12/25 17:28:35;;;;;;;2.22;1.02;;;11.20;99.90;;;;;;7358845;32;20315;-58
2023/12/25 17:32:37;;;;;;;1.62;1.08;;;11.10;99.90;;;;;;7356040;32;20126;-58
2023/12/25 17:36:39;;;;;;;1.60;1.00;;;11.10;99.90;;;;;;7364713;32;20122;-58
2023/12/25 17:40:40;;;;;;;1.27;1.05;;;11.10;99.90;;;;;;7361253;32;20161;-57
2023/12/25 17:44:42;;;;;;;1.15;0.90;;;11.10;99.90;;;;;;7357526;32;20266;-58
2023/12/25 17:48:44;;;;;;;2.25;0.90;;;11.10;99.90;;;;;;7365247;32;20547;-58
2023/12/25 17:52:48;;;;;;;1.37;0.77;;;11.10;99.90;;;;;;7366422;32;20217;-58
2023/12/25 17:56:49;;;;;;;1.05;0.80;;;11.10;99.90;;;;;;7357109;32;20302;-58
2023/12/25 18:00:51;;;;;;;1.35;0.90;;;11.10;99.90;;;;;;7357951;32;20222;-57
2023/12/25 18:04:53;;;;;;;2.15;1.00;;;11.10;99.90;;;;;;7352746;32;20206;-59
2023/12/25 18:08:55;;;;;;;1.27;1.17;;;11.00;99.90;;;;;;7360053;32;20151;-57
2023/12/25 18:12:57;;;;;;;1.48;1.10;;;11.00;99.90;;;;;;7358300;32;20284;-59
2023/12/25 18:16:58;;;;;;;1.70;0.90;;;11.00;99.90;;;;;;7357077;32;20284;-58
2023/12/25 18:21:00;;;;;;;0.80;0.75;;;11.00;99.90;;;;;;7358460;32;20669;-57
2023/12/25 18:25:02;;;;;;;1.30;1.00;;;11.00;99.90;;;;;;7360298;32;20220;-58
2023/12/25 18:29:04;;;;;;;1.25;0.85;;;11.00;99.90;;;;;;7355888;32;20107;-58
2023/12/25 18:33:06;;;;;;;1.85;1.00;;;11.00;99.90;;;;;;7359601;32;20128;-58
2023/12/25 18:37:08;;;;;;;3.58;2.47;;;11.10;99.90;;;;;;7355762;32;20625;-62
2023/12/25 18:41:11;;;;;;;1.45;1.15;;;11.40;99.90;;;;;;7358197;32;20163;-64
2023/12/25 18:45:13;;;;;;;1.20;0.80;;;11.40;99.90;;;;;;7355513;32;20706;-57
2023/12/25 18:49:15;;;;;;;1.90;1.30;;;11.30;99.90;;;;;;7365935;32;20107;-58
2023/12/25 18:53:17;;;;;;;1.40;1.10;;;11.30;99.90;;;;;;7360259;32;20472;-58
2023/12/25 18:57:20;;;;;;;1.87;0.98;;;11.20;99.90;;;;;;7359616;32;20106;-57
2023/12/25 19:01:22;;;;;;;1.67;1.08;;;11.10;99.90;;;;;;7358801;32;20224;-57
2023/12/25 19:05:24;;;;;;;1.45;1.12;;;11.10;99.90;;;;;;7366197;32;20298;-55
2023/12/25 19:09:26;;;;;;;3.60;1.48;;;11.10;99.90;;;;;;7360243;32;20111;-58
2023/12/25 19:13:29;;;;;;;2.97;1.98;;;11.00;99.90;;;;;;7359838;32;20143;-57
2023/12/25 19:17:31;;;;;;;2.47;1.60;;;11.00;99.90;;;;;;7359903;32;20202;-57
2023/12/25 19:21:33;;;;;;;2.45;1.80;;;11.00;99.90;;;;;;7357720;32;20187;-58
2023/12/25 19:25:40;;;;;;;1.52;1.42;;;11.00;99.90;;;;;;7361461;32;20113;-58
2023/12/25 19:29:42;;;;;;;2.65;1.55;;;10.90;99.90;;;;;;7364322;32;20125;-58
2023/12/25 19:33:44;;;;;;;1.70;1.50;;;10.90;99.90;;;;;;7359938;32;20202;-58
2023/12/25 19:37:46;;;;;;;2.28;1.50;;;10.90;99.90;;;;;;7366201;32;20125;-57
2023/12/25 19:41:49;;;;;;;2.83;1.70;;;10.90;99.90;;;;;;7353554;32;20528;-58
2023/12/25 19:45:51;;;;;;;11.02;6.25;;;10.90;99.90;;;;;;7366943;32;20221;-57
2023/12/25 19:49:53;;;;;;;9.57;4.55;;;10.80;99.90;;;;;;7336814;32;20182;-59
2023/12/25 19:53:55;;;;;;;2.22;1.77;;;10.80;99.90;;;;;;7341776;32;20517;-57
2023/12/25 19:57:57;;;;;;;2.85;1.58;;;10.80;99.90;;;;;;7348617;32;20217;-59
2023/12/25 20:01:59;;;;;;;2.83;1.75;;;10.80;99.90;;;;;;7350940;32;20254;-57
2023/12/25 20:06:01;;;;;;;3.00;1.87;;;10.80;99.90;;;;;;7366817;32;20357;-58
2023/12/25 20:10:04;;;;;;;2.20;1.58;;;10.80;99.90;;;;;;7364502;32;20115;-57
2023/12/25 20:14:06;;;;;;;5.05;2.00;;;10.80;99.90;;;;;;7369634;32;20253;-58
2023/12/25 20:18:09;;;;;;;2.08;1.62;;;10.80;99.90;;;;;;7361855;32;20103;-56
2023/12/25 20:22:11;;;;;;;3.22;1.98;;;10.80;99.90;;;;;;7362205;32;20481;-57
2023/12/25 20:26:13;;;;;;;3.20;1.80;;;10.80;99.90;;;;;;7367673;32;20202;-56
2023/12/25 20:30:15;;;;;;;3.15;1.77;;;10.80;99.90;;;;;;7360116;32;20196;-56
2023/12/25 20:34:17;;;;;;;2.00;1.80;;;10.80;99.90;;;;;;7359934;32;20304;-58
2023/12/25 20:38:18;;;;;;;3.17;1.58;;;10.70;99.90;;;;;;7366395;32;20107;-57
2023/12/25 20:42:20;;;;;;;2.92;2.00;;;10.70;99.90;;;;;;7363018;32;20167;-57
2023/12/25 20:46:22;;;;;;;2.78;1.70;;;10.70;99.90;;;;;;7358074;32;20263;-57
2023/12/25 20:50:24;;;;;;;1.77;1.60;;;10.70;99.90;;;;;;7363087;32;20119;-56
2023/12/25 20:54:26;;;;;;;1.70;1.40;;;10.70;99.90;;;;;;7344915;32;21280;-59
2023/12/25 20:58:30;;;;;;;3.85;1.50;;;10.70;99.90;;;;;;7365635;32;20182;-58
2023/12/25 21:02:32;;;;;;;3.62;1.30;;;10.70;99.90;;;;;;7345167;32;20240;-58
2023/12/25 21:06:34;;;;;;;3.25;1.37;;;10.70;99.90;;;;;;7352658;32;20384;-55